Thunder radar more information blitzortung!


avis per Pluja more information rain snow radar


Visita la nostra xarxa de llocs de meteo:

Template documentation
and downloads

And another site



Rain From: 16-11-2018 00:00 Until: 09:59 warning for: Rain Level: Yellow info button

Pagina Historial Weather Underground text

Diari Resum Novembre 13, 2017 Unitats:  Imperial    Mètric   Tant
« Previous Dia
SegĂźent Dia »
Diari Setmana Mensual Anual Personalitzada
  Maxima: Minima: Media:
Temperatura: TemperatureC °F 5.9 °F 11.4 °F
Punt de rosada: DewpointC °F -11.3 °F -5.5 °F
Humitat: Humidity % 22 % 32 %
Wind Speed: WindSpeedKMH mph 0.0 mph 6.8 mph
RĂ fegues de vent: WindSpeedGustKMH mph - -
Vent:- - SSW
Pression baro: PressurehPa in 1010.0 in -
Precipitacions: 0.0 in    
Historical Graphs
 
 
Dades de taula per Novembre 13, 2017
Temps Temperatura Punt de rosada Pression baro Vent Wind Speed RĂ fegues de vent Humitat Rainfall Rate (Hourly)
TemperatureC °F DewpointC °F PressurehPa in Calm     Humidity % HourlyPrecipMM in
00:01 13.3 °F 6.6 °F 1010.0 in West 11.1 mph 11.1 mph 64 % 0.0 in
01:10 7.4 °F 3.1 °F 1011.7 in Calm   3.2 mph 74 % 0.0 in
01:20 7.4 °F 3.3 °F 1011.7 in Calm   3.2 mph 75 % 0.0 in
01:30 7.2 °F 3.1 °F 1012.8 in North 1.6 mph 3.2 mph 75 % 0.0 in
01:40 6.9 °F 2.6 °F 1013.8 in NNE 1.6 mph 4.8 mph 74 % 0.0 in
01:50 6.8 °F 2.5 °F 1013.8 in NE 1.6 mph 4.8 mph 74 % 0.0 in
02:00 6.6 °F 1.9 °F 1013.8 in NW 4.8 mph 6.4 mph 72 % 0.0 in
02:20 7.9 °F 2.8 °F 1013.8 in West 1.6 mph 4.8 mph 70 % 0.0 in
02:30 7.9 °F 2.8 °F 1013.8 in SSW 3.2 mph 4.8 mph 70 % 0.0 in
02:40 8.2 °F 2.8 °F 1013.8 in WSW 3.2 mph 4.8 mph 69 % 0.0 in
02:50 8.6 °F 3.0 °F 1013.8 in WSW 3.2 mph 6.4 mph 68 % 0.0 in
03:00 9.6 °F 3.8 °F 1013.8 in WSW 3.2 mph 6.4 mph 67 % 0.0 in
03:10 10.3 °F 4.0 °F 1014.8 in East 3.2 mph 4.8 mph 65 % 0.0 in
03:20 10.8 °F 4.1 °F 1014.8 in East 3.2 mph 6.4 mph 63 % 0.0 in
03:30 11.2 °F 4.4 °F 1014.8 in ESE 1.6 mph 4.8 mph 63 % 0.0 in
03:40 11.2 °F 4.2 °F 1015.8 in ESE 3.2 mph 4.8 mph 62 % 0.0 in
03:50 12.0 °F 4.7 °F 1015.8 in East 1.6 mph 3.2 mph 61 % 0.0 in
04:00 12.0 °F 3.5 °F 1015.8 in ENE 4.8 mph 6.4 mph 56 % 0.0 in
04:10 12.4 °F 3.6 °F 1014.8 in NE 3.2 mph 3.2 mph 55 % 0.0 in
04:20 12.8 °F 3.4 °F 1014.8 in North 1.6 mph 3.2 mph 53 % 0.0 in
10:21 13.1 °F 4.0 °F 1014.8 in WNW 5.6 mph 5.6 mph 54 % 0.0 in
10:22 13.1 °F 4.0 °F 1014.8 in West 3.7 mph 3.7 mph 54 % 0.0 in
10:27 13.4 °F 4.0 °F 1014.8 in ENE 3.7 mph 3.7 mph 53 % 0.0 in
10:32 13.5 °F 3.8 °F 1014.8 in West 3.9 mph 3.9 mph 52 % 0.0 in
10:37 13.6 °F 3.7 °F 1014.8 in NNE 2.3 mph 2.3 mph 51 % 0.0 in
10:42 13.9 °F 3.9 °F 1014.8 in ENE 2.6 mph 2.6 mph 51 % 0.0 in
10:47 13.8 °F 2.9 °F 1014.8 in ENE 9.3 mph 9.3 mph 48 % 0.0 in
10:52 13.6 °F 2.8 °F 1015.8 in ENE 9.3 mph 9.3 mph 48 % 0.0 in
10:57 13.4 °F 2.3 °F 1015.8 in NNE 7.4 mph 7.4 mph 47 % 0.0 in
11:02 13.5 °F 2.4 °F 1015.8 in NE 9.5 mph 9.5 mph 47 % 0.0 in
11:07 13.7 °F 2.6 °F 1015.8 in SW 3.7 mph 3.7 mph 47 % 0.0 in
11:12 13.7 °F 1.9 °F 1015.8 in West 7.4 mph 7.4 mph 45 % 0.0 in
11:17 14.0 °F 2.2 °F 1015.8 in WNW 7.4 mph 7.4 mph 45 % 0.0 in
11:22 14.0 °F 1.3 °F 1015.8 in NE 7.4 mph 7.4 mph 42 % 0.0 in
11:27 14.2 °F 1.1 °F 1015.8 in NE 8.7 mph 8.7 mph 41 % 0.0 in
11:32 14.1 °F 1.1 °F 1015.8 in NE 9.5 mph 9.5 mph 41 % 0.0 in
11:37 14.2 °F 0.8 °F 1015.8 in ENE 5.6 mph 5.6 mph 40 % 0.0 in
11:42 14.3 °F 1.2 °F 1015.8 in NNW 7.4 mph 7.4 mph 41 % 0.0 in
11:47 14.2 °F -0.3 °F 1015.8 in North 9.3 mph 9.3 mph 37 % 0.0 in
11:57 14.5 °F -0.4 °F 1015.8 in WNW 5.6 mph 5.6 mph 36 % 0.0 in
12:02 14.9 °F -0.1 °F 1015.8 in NNW 5.6 mph 5.6 mph 36 % 0.0 in
12:07 15.2 °F 0.2 °F 1015.8 in NNE 6.1 mph 6.1 mph 36 % 0.0 in
12:12 15.1 °F 0.1 °F 1015.8 in NNE 5.6 mph 5.6 mph 36 % 0.0 in
12:17 15.0 °F -0.8 °F 1015.8 in NNW 9.3 mph 9.3 mph 34 % 0.0 in
12:22 14.8 °F -0.9 °F 1014.8 in NE 9.3 mph 9.3 mph 34 % 0.0 in
12:27 14.8 °F -0.9 °F 1014.8 in North 11.1 mph 11.1 mph 34 % 0.0 in
12:32 14.9 °F -1.3 °F 1014.8 in NW 5.6 mph 5.6 mph 33 % 0.0 in
12:37 15.0 °F -1.2 °F 1014.8 in NNE 10.3 mph 10.3 mph 33 % 0.0 in
12:42 14.9 °F -1.3 °F 1014.8 in North 9.3 mph 9.3 mph 33 % 0.0 in
12:48 15.0 °F -1.2 °F 1014.8 in NNE 7.6 mph 7.6 mph 33 % 0.0 in
12:53 14.9 °F -1.7 °F 1014.8 in North 13.0 mph 13.0 mph 32 % 0.0 in
12:58 15.0 °F -1.6 °F 1014.8 in NE 7.4 mph 7.4 mph 32 % 0.0 in
13:03 15.0 °F -1.6 °F 1014.8 in ENE 9.3 mph 9.3 mph 32 % 0.0 in
13:08 15.0 °F -1.6 °F 1014.8 in ENE 11.1 mph 11.1 mph 32 % 0.0 in
13:13 15.0 °F -2.0 °F 1014.8 in NNE 13.0 mph 13.0 mph 31 % 0.0 in
13:18 15.0 °F -2.0 °F 1014.8 in North 14.8 mph 14.8 mph 31 % 0.0 in
13:23 15.0 °F -2.0 °F 1014.8 in NNE 9.3 mph 9.3 mph 31 % 0.0 in
13:28 15.0 °F -2.0 °F 1014.8 in NE 13.7 mph 13.7 mph 31 % 0.0 in
13:33 15.0 °F -2.4 °F 1014.8 in ENE 11.1 mph 11.1 mph 30 % 0.0 in
13:38 15.1 °F -2.4 °F 1014.8 in WNW 9.5 mph 9.5 mph 30 % 0.0 in
13:43 15.0 °F -2.4 °F 1014.8 in NNW 7.4 mph 7.4 mph 30 % 0.0 in
13:48 15.0 °F -2.4 °F 1014.8 in NNW 9.3 mph 9.3 mph 30 % 0.0 in
13:58 15.1 °F -2.4 °F 1014.8 in ENE 7.9 mph 7.9 mph 30 % 0.0 in
14:03 15.0 °F -2.4 °F 1014.8 in North 6.1 mph 6.1 mph 30 % 0.0 in
14:08 15.0 °F -2.4 °F 1014.8 in ENE 7.4 mph 7.4 mph 30 % 0.0 in
14:13 14.9 °F -3.5 °F 1014.8 in NNW 10.3 mph 10.3 mph 28 % 0.0 in
14:18 15.1 °F -2.4 °F 1014.8 in SW 4.7 mph 4.7 mph 30 % 0.0 in
14:23 15.2 °F -2.7 °F 1014.8 in SW 11.1 mph 11.1 mph 29 % 0.0 in
14:28 15.4 °F -2.6 °F 1014.8 in NW 6.1 mph 6.1 mph 29 % 0.0 in
14:33 15.3 °F -2.7 °F 1014.8 in SSE 7.4 mph 7.4 mph 29 % 0.0 in
14:38 15.2 °F -3.2 °F 1014.8 in North 3.2 mph 3.2 mph 28 % 0.0 in
14:48 15.5 °F -2.5 °F 1014.8 in North 13.0 mph 13.0 mph 29 % 0.0 in
14:53 15.4 °F -3.1 °F 1014.8 in NNE 5.6 mph 5.6 mph 28 % 0.0 in
14:58 15.3 °F -3.1 °F 1014.8 in NE 7.4 mph 7.4 mph 28 % 0.0 in
15:03 15.1 °F -3.8 °F 1014.8 in NW 16.7 mph 16.7 mph 27 % 0.0 in
15:08 15.0 °F -3.9 °F 1014.8 in ENE 7.4 mph 7.4 mph 27 % 0.0 in
15:13 15.0 °F -3.4 °F 1014.8 in SW 13.0 mph 13.0 mph 28 % 0.0 in
15:23 15.1 °F -3.8 °F 1014.8 in ESE 3.7 mph 3.7 mph 27 % 0.0 in
15:28 15.0 °F -3.9 °F 1014.8 in North 9.3 mph 9.3 mph 27 % 0.0 in
15:33 15.0 °F -3.9 °F 1014.8 in NW 10.0 mph 10.0 mph 27 % 0.0 in
15:38 14.8 °F -4.1 °F 1014.8 in WNW 11.1 mph 11.1 mph 27 % 0.0 in
15:43 14.9 °F -3.9 °F 1014.8 in NE 5.8 mph 5.8 mph 27 % 0.0 in
15:48 14.9 °F -3.9 °F 1014.8 in WNW 9.3 mph 9.3 mph 27 % 0.0 in
15:53 15.0 °F -3.9 °F 1014.8 in NNW 5.6 mph 5.6 mph 27 % 0.0 in
15:58 15.0 °F -3.9 °F 1014.8 in WSW 5.8 mph 5.8 mph 27 % 0.0 in
16:03 15.0 °F -4.4 °F 1014.8 in WNW 7.4 mph 7.4 mph 26 % 0.0 in
16:18 14.7 °F -4.6 °F 1014.8 in WSW 9.3 mph 9.3 mph 26 % 0.0 in
16:23 14.6 °F -5.2 °F 1014.8 in NNW 9.3 mph 9.3 mph 25 % 0.0 in
16:28 14.5 °F -5.3 °F 1014.8 in WNW 5.6 mph 5.6 mph 25 % 0.0 in
16:33 14.4 °F -5.4 °F 1014.8 in South 7.4 mph 7.4 mph 25 % 0.0 in
16:38 14.5 °F -4.8 °F 1014.8 in West 7.4 mph 7.4 mph 26 % 0.0 in
16:43 14.4 °F -5.4 °F 1014.8 in WSW 4.2 mph 4.2 mph 25 % 0.0 in
16:48 14.3 °F -5.5 °F 1014.8 in West 7.4 mph 7.4 mph 25 % 0.0 in
16:53 14.1 °F -5.7 °F 1015.8 in SSW 9.3 mph 9.3 mph 25 % 0.0 in
16:58 14.0 °F -5.8 °F 1015.8 in WSW 9.3 mph 9.3 mph 25 % 0.0 in
17:03 13.9 °F -5.8 °F 1015.8 in South 11.4 mph 11.4 mph 25 % 0.0 in
17:08 13.6 °F -6.6 °F 1015.8 in WSW 20.4 mph 20.4 mph 24 % 0.0 in
17:13 13.3 °F -6.9 °F 1015.8 in WSW 9.3 mph 9.3 mph 24 % 0.0 in
17:18 13.1 °F -7.6 °F 1015.8 in WSW 11.1 mph 11.1 mph 23 % 0.0 in
17:23 12.9 °F -7.8 °F 1015.8 in WNW 9.3 mph 9.3 mph 23 % 0.0 in
17:28 12.7 °F -7.9 °F 1015.8 in NW 12.2 mph 12.2 mph 23 % 0.0 in
17:33 12.5 °F -8.1 °F 1015.8 in WNW 8.7 mph 8.7 mph 23 % 0.0 in
17:38 12.4 °F -8.2 °F 1015.8 in WNW 13.0 mph 13.0 mph 23 % 0.0 in
17:43 12.2 °F -8.4 °F 1015.8 in WNW 9.5 mph 9.5 mph 23 % 0.0 in
17:48 12.1 °F -8.4 °F 1015.8 in WSW 5.6 mph 5.6 mph 23 % 0.0 in
17:53 12.0 °F -8.6 °F 1015.8 in West 11.1 mph 11.1 mph 23 % 0.0 in
17:58 11.9 °F -9.2 °F 1015.8 in North 9.3 mph 9.3 mph 22 % 0.0 in
18:03 11.8 °F -8.7 °F 1015.8 in WSW 7.9 mph 7.9 mph 23 % 0.0 in
18:08 11.6 °F -8.9 °F 1015.8 in WSW 7.4 mph 7.4 mph 23 % 0.0 in
18:13 11.5 °F -8.9 °F 1015.8 in WNW 6.1 mph 6.1 mph 23 % 0.0 in
18:18 11.4 °F -9.1 °F 1015.8 in SW 13.0 mph 13.0 mph 23 % 0.0 in
18:20 8.1 °F -10.8 °F 1014.8 in West 4.8 mph 4.8 mph 25 % 0.0 in
18:23 11.3 °F -9.1 °F 1015.8 in West 9.3 mph 9.3 mph 23 % 0.0 in
18:28 11.3 °F -9.1 °F 1015.8 in West 7.6 mph 7.6 mph 23 % 0.0 in
18:30 7.9 °F -10.4 °F 1014.8 in West 9.7 mph 9.7 mph 26 % 0.0 in
18:33 11.2 °F -9.2 °F 1015.8 in West 11.1 mph 11.1 mph 23 % 0.0 in
18:38 11.1 °F -9.3 °F 1015.8 in WSW 9.3 mph 9.3 mph 23 % 0.0 in
18:40 7.6 °F -10.7 °F 1014.8 in West 4.8 mph 6.4 mph 26 % 0.0 in
18:43 11.0 °F -9.4 °F 1015.8 in WNW 5.6 mph 5.6 mph 23 % 0.0 in
18:48 10.9 °F -9.4 °F 1015.8 in WNW 5.6 mph 5.6 mph 23 % 0.0 in
18:50 7.6 °F -10.7 °F 1014.8 in WSW 4.8 mph 12.9 mph 26 % 0.0 in
18:58 10.7 °F -9.6 °F 1015.8 in West 9.3 mph 9.3 mph 23 % 0.0 in
19:03 10.6 °F -9.7 °F 1015.8 in SW 5.6 mph 5.6 mph 23 % 0.0 in
19:08 10.5 °F -9.8 °F 1015.8 in West 5.6 mph 5.6 mph 23 % 0.0 in
19:10 7.2 °F -10.6 °F 1014.8 in WSW 4.8 mph 6.4 mph 27 % 0.0 in
19:13 10.4 °F -9.9 °F 1015.8 in West 7.4 mph 7.4 mph 23 % 0.0 in
19:18 10.5 °F -9.8 °F 1015.8 in WNW 5.0 mph 5.0 mph 23 % 0.0 in
19:20 6.8 °F -10.9 °F 1014.8 in WSW 3.2 mph 6.4 mph 27 % 0.0 in
19:23 10.6 °F -9.7 °F 1015.8 in WSW 5.6 mph 5.6 mph 23 % 0.0 in
19:28 10.3 °F -9.9 °F 1015.8 in WSW 3.7 mph 3.7 mph 23 % 0.0 in
19:30 6.7 °F -10.6 °F 1015.8 in WSW 3.2 mph 6.4 mph 28 % 0.0 in
19:33 10.2 °F -10.1 °F 1015.8 in West 6.1 mph 6.1 mph 23 % 0.0 in
19:38 10.2 °F -10.1 °F 1015.8 in WSW 9.3 mph 9.3 mph 23 % 0.0 in
19:40 6.7 °F -10.6 °F 1015.8 in WSW 1.6 mph 4.8 mph 28 % 0.0 in
19:43 10.1 °F -10.2 °F 1015.8 in WSW 7.4 mph 7.4 mph 23 % 0.0 in
19:48 9.9 °F -10.3 °F 1015.8 in West 3.7 mph 3.7 mph 23 % 0.0 in
19:50 6.9 °F -10.8 °F 1015.8 in WSW 3.2 mph 3.2 mph 27 % 0.0 in
19:53 9.9 °F -10.3 °F 1015.8 in SW 3.7 mph 3.7 mph 23 % 0.0 in
19:58 9.8 °F -10.4 °F 1015.8 in West 5.6 mph 5.6 mph 23 % 0.0 in
19:59 9.8 °F -10.4 °F 1015.8 in West 5.6 mph 5.6 mph 23 % 0.0 in
20:00 6.5 °F -10.7 °F 1015.8 in Calm   4.8 mph 28 % 0.0 in
20:04 9.9 °F -10.3 °F 1014.8 in WSW 5.6 mph 5.6 mph 23 % 0.0 in
20:09 10.0 °F -10.2 °F 1014.8 in West 6.9 mph 6.9 mph 23 % 0.0 in
20:10 6.3 °F -10.9 °F 1015.8 in SW 4.8 mph 4.8 mph 28 % 0.0 in
20:14 10.0 °F -10.2 °F 1014.8 in WSW 3.7 mph 3.7 mph 23 % 0.0 in
20:19 9.9 °F -10.3 °F 1015.8 in WNW 3.5 mph 3.5 mph 23 % 0.0 in
20:20 6.0 °F -11.2 °F 1015.8 in SW 4.8 mph 4.8 mph 28 % 0.0 in
20:24 9.9 °F -10.3 °F 1015.8 in ENE 3.7 mph 3.7 mph 23 % 0.0 in
20:29 9.9 °F -10.3 °F 1015.8 in NNE 9.3 mph 9.3 mph 23 % 0.0 in
20:30 6.0 °F -10.7 °F 1015.8 in WSW 3.2 mph 4.8 mph 29 % 0.0 in
20:39 9.9 °F -10.3 °F 1014.8 in SW 3.7 mph 3.7 mph 23 % 0.0 in
20:40 6.5 °F -10.3 °F 1015.8 in West 1.6 mph 4.8 mph 29 % 0.0 in
20:44 9.9 °F -10.3 °F 1014.8 in SW 3.7 mph 3.7 mph 23 % 0.0 in
20:49 9.9 °F -9.8 °F 1014.8 in WSW 5.6 mph 5.6 mph 24 % 0.0 in
20:50 6.8 °F -10.1 °F 1015.8 in WSW 3.2 mph 4.8 mph 29 % 0.0 in
20:54 10.0 °F -9.7 °F 1014.8 in SW 7.4 mph 7.4 mph 24 % 0.0 in
20:59 10.1 °F -10.2 °F 1014.8 in WSW 7.4 mph 7.4 mph 23 % 0.0 in
21:00 6.7 °F -10.1 °F 1015.8 in SW 1.6 mph 4.8 mph 29 % 0.0 in
21:04 10.2 °F -9.5 °F 1014.8 in West 10.3 mph 10.3 mph 24 % 0.0 in
21:09 10.2 °F -10.1 °F 1014.8 in West 9.5 mph 9.5 mph 23 % 0.0 in
21:10 5.9 °F -10.8 °F 1015.8 in WSW 3.2 mph 4.8 mph 29 % 0.0 in
21:14 10.1 °F -10.2 °F 1014.8 in WSW 9.3 mph 9.3 mph 23 % 0.0 in
21:19 10.1 °F -10.2 °F 1014.8 in SW 11.1 mph 11.1 mph 23 % 0.0 in
21:20 6.0 °F -10.3 °F 1015.8 in WSW 3.2 mph 4.8 mph 30 % 0.0 in
21:24 10.0 °F -10.2 °F 1014.8 in WSW 11.1 mph 11.1 mph 23 % 0.0 in
21:29 10.0 °F -10.2 °F 1014.8 in SW 9.3 mph 9.3 mph 23 % 0.0 in
21:30 6.2 °F -10.1 °F 1015.8 in WSW 4.8 mph 9.7 mph 30 % 0.0 in
21:34 9.9 °F -10.3 °F 1014.8 in WSW 9.3 mph 9.3 mph 23 % 0.0 in
21:39 9.8 °F -10.4 °F 1014.8 in West 8.7 mph 8.7 mph 23 % 0.0 in
21:40 6.3 °F -10.1 °F 1015.8 in WSW 4.8 mph 9.7 mph 30 % 0.0 in
21:44 10.0 °F -10.2 °F 1014.8 in West 13.0 mph 13.0 mph 23 % 0.0 in
21:49 9.8 °F -10.4 °F 1014.8 in WSW 5.6 mph 5.6 mph 23 % 0.0 in
21:50 6.3 °F -10.1 °F 1015.8 in WSW 4.8 mph 8.0 mph 30 % 0.0 in
21:54 9.6 °F -10.6 °F 1014.8 in West 6.1 mph 6.1 mph 23 % 0.0 in
21:59 9.5 °F -10.7 °F 1014.8 in WSW 5.6 mph 5.6 mph 23 % 0.0 in
22:00 6.3 °F -10.1 °F 1015.8 in West 3.2 mph 6.4 mph 30 % 0.0 in
22:04 9.4 °F -10.7 °F 1015.8 in SSW 7.4 mph 7.4 mph 23 % 0.0 in
22:09 9.3 °F -10.8 °F 1015.8 in WSW 7.4 mph 7.4 mph 23 % 0.0 in
22:10 6.2 °F -10.1 °F 1014.8 in West 4.8 mph 9.7 mph 30 % 0.0 in
22:14 9.4 °F -10.7 °F 1015.8 in SW 7.9 mph 7.9 mph 23 % 0.0 in
22:19 9.3 °F -10.8 °F 1015.8 in WSW 7.4 mph 7.4 mph 23 % 0.0 in
22:20 9.3 °F -10.8 °F 1015.8 in WSW 7.4 mph 7.4 mph 23 % 0.0 in
22:25 9.1 °F -11.0 °F 1015.8 in WSW 7.4 mph 7.4 mph 23 % 0.0 in
22:30 9.1 °F -11.0 °F 1015.8 in West 5.6 mph 5.6 mph 23 % 0.0 in
22:35 9.0 °F -11.1 °F 1015.8 in WSW 5.6 mph 5.6 mph 23 % 0.0 in
22:40 9.0 °F -11.1 °F 1015.8 in WNW 10.0 mph 10.0 mph 23 % 0.0 in
22:45 9.2 °F -10.9 °F 1015.8 in WSW 11.1 mph 11.1 mph 23 % 0.0 in
22:50 9.5 °F -10.7 °F 1015.8 in WSW 11.1 mph 11.1 mph 23 % 0.0 in
22:55 9.2 °F -10.9 °F 1015.8 in SSW 7.4 mph 7.4 mph 23 % 0.0 in
23:00 8.9 °F -11.2 °F 1015.8 in WSW 5.6 mph 5.8 mph 23 % 0.0 in
23:05 8.7 °F -11.3 °F 1015.8 in SW 5.6 mph 5.6 mph 23 % 0.0 in
23:10 8.7 °F -11.3 °F 1015.8 in WSW 5.6 mph 5.6 mph 23 % 0.0 in
23:15 8.7 °F -10.8 °F 1015.8 in WSW 7.4 mph 7.4 mph 24 % 0.0 in
23:20 8.6 °F -10.9 °F 1015.8 in WSW 4.8 mph 9.7 mph 24 % 0.0 in
23:25 8.7 °F -10.8 °F 1015.8 in WSW 7.4 mph 7.9 mph 24 % 0.0 in
23:30 8.8 °F -10.7 °F 1015.8 in WSW 5.8 mph 5.8 mph 24 % 0.0 in
23:40 8.4 °F -11.1 °F 1015.8 in WSW 3.2 mph 4.8 mph 24 % 0.0 in
23:45 8.2 °F -10.7 °F 1015.8 in SW 3.2 mph 9.7 mph 25 % 0.0 in
23:50 8.1 °F -10.8 °F 1015.8 in West 9.3 mph 9.3 mph 25 % 0.0 in
23:55 8.1 °F -10.8 °F 1015.8 in SW 7.4 mph 7.4 mph 25 % 0.0 in
Meteo Sesrovires
Elogis d' Weather Underground - 1.5 mb

Guio original per  Jim McMurry - jmcmurry@mwt.net Adaptat per a la plantilla per  Wim van der Kuil - Leuven-Template.eu

Trobareu la nostra informacio del temps tambe a:

Weather Underground

AWEKAS